Pagrindinis puslapis
METAR-TAF:

METAR-TAF

Oro uostai :

Ankoridžas, Aliaska, Jungtinės Amerikos Valstijos

platuma: 61-10-28N, ilguma: 149-59-46W, Aukštis: 44 m

Dabartinis oras

Ataskaita buvo paskelbta 1 valandą ir 1 minutes, ne 13:53 UTC
Vėjas 5 kt iš Šiaurės
Temperatūra 9°C
Drėgmė 87%
Slėgis 987 hPa
Matomumas: 16.1 km
Su prošvaistėmis ne aukštis 6000 ft
Apsiniaukę ne aukštis 7500 ft

METAR: PANC 241353Z 35005KT 10SM BKN060 OVC075 09/07 A2915 RMK AO2 SLP870 T00890072

Laikas: 06:54 (14:54 UTC)

Prognozė

Ataskaita buvo paskelbta 3 valandos ir 34 minutes, ne 11:20 UTC
Prognozė galioja nuo 24 metu 12 UTC su 25 metu 18 UTC
Vėjas 4 kt nuo kintamojo kryptimis
Matomumas: 10 km
Apsiniaukę ne aukštis 5000 ft
Liūtis kaimynystėje
Nuo 24 metu 2300 UTC
Vėjas 5 kt nuo kintamojo kryptimis
Matomumas: 10 km
Su prošvaistėmis ne aukštis 4000 ft
Apsiniaukę ne aukštis 5000 ft
lietus

TAF: PANC 241120Z 2412/2518 VRB04KT P6SM VCSH OVC050 FM242300 VRB05KT P6SM -RA BKN040 OVC050

Orai ataskaitas ir orų prognozės (METAR, TAF).

turimą stotys yra geltonos ir raudonos taškus žemėlapyje.

Perkelti pele per norėdami pamatyti stoties vardą.

Tada spustelėkite, norėdami matyti oro stebėjimo ir prognozės.

Norėdami pakeisti žemėlapį: spustelėkite ant žalios mygtukų su juodo kryžiaus žemyn,; žalią mygtuką su brūkšneliu, jei norite nutolinti; arba žalių rodyklių gretimoms žemėlapius.


METAR-TAF: